sensor_id;sensor_type;location;lat;lon;timestamp;P1;durP1;ratioP1;P2;durP2;ratioP2
52456;SDS011;38369;52.840;7.082;2023-04-01T00:00:05;14.52;;;7.90;;
52456;SDS011;38369;52.840;7.082;2023-04-01T00:02:31;12.32;;;8.50;;
52456;SDS011;38369;52.840;7.082;2023-04-01T00:04:57;11.05;;;8.13;;
52456;SDS011;38369;52.840;7.082;2023-04-01T00:07:23;11.05;;;8.00;;
52456;SDS011;38369;52.840;7.082;2023-04-01T00:09:50;9.90;;;7.47;;
52456;SDS011;38369;52.840;7.082;2023-04-01T00:12:16;12.00;;;7.97;;
52456;SDS011;38369;52.840;7.082;2023-04-01T00:14:43;14.50;;;8.18;;
52456;SDS011;38369;52.840;7.082;2023-04-01T00:17:09;9.90;;;8.18;;
52456;SDS011;38369;52.840;7.082;2023-04-01T00:19:35;10.23;;;7.90;;
52456;SDS011;38369;52.840;7.082;2023-04-01T00:22:02;11.32;;;7.75;;
52456;SDS011;38369;52.840;7.082;2023-04-01T00:24:28;11.27;;;7.93;;
52456;SDS011;38369;52.840;7.082;2023-04-01T00:26:54;9.57;;;7.53;;
52456;SDS011;38369;52.840;7.082;2023-04-01T00:29:21;12.45;;;8.05;;
52456;SDS011;38369;52.840;7.082;2023-04-01T00:31:49;12.68;;;8.57;;
52456;SDS011;38369;52.840;7.082;2023-04-01T00:34:15;11.30;;;8.30;;
52456;SDS011;38369;52.840;7.082;2023-04-01T00:36:41;14.07;;;7.07;;
52456;SDS011;38369;52.840;7.082;2023-04-01T00:39:07;13.80;;;8.38;;
52456;SDS011;38369;52.840;7.082;2023-04-01T00:41:33;10.80;;;8.07;;
52456;SDS011;38369;52.840;7.082;2023-04-01T00:46:43;11.70;;;6.70;;
52456;SDS011;38369;52.840;7.082;2023-04-01T00:49:09;13.98;;;9.35;;
52456;SDS011;38369;52.840;7.082;2023-04-01T00:51:35;12.60;;;6.95;;
52456;SDS011;38369;52.840;7.082;2023-04-01T00:54:03;12.60;;;7.55;;
52456;SDS011;38369;52.840;7.082;2023-04-01T00:56:30;9.45;;;6.90;;
52456;SDS011;38369;52.840;7.082;2023-04-01T00:58:58;10.82;;;7.07;;
52456;SDS011;38369;52.840;7.082;2023-04-01T01:01:26;10.98;;;7.05;;
52456;SDS011;38369;52.840;7.082;2023-04-01T01:03:53;9.90;;;6.40;;
52456;SDS011;38369;52.840;7.082;2023-04-01T01:11:37;12.32;;;6.90;;
52456;SDS011;38369;52.840;7.082;2023-04-01T01:16:33;8.55;;;6.85;;
52456;SDS011;38369;52.840;7.082;2023-04-01T01:21:47;11.18;;;7.00;;
52456;SDS011;38369;52.840;7.082;2023-04-01T01:24:22;12.07;;;6.35;;
52456;SDS011;38369;52.840;7.082;2023-04-01T01:27:00;9.40;;;7.20;;
52456;SDS011;38369;52.840;7.082;2023-04-01T01:37:18;8.05;;;6.13;;
52456;SDS011;38369;52.840;7.082;2023-04-01T01:39:48;7.85;;;5.85;;
52456;SDS011;38369;52.840;7.082;2023-04-01T01:42:15;10.50;;;6.10;;
52456;SDS011;38369;52.840;7.082;2023-04-01T01:44:41;12.07;;;6.88;;
52456;SDS011;38369;52.840;7.082;2023-04-01T01:47:09;7.30;;;5.20;;
52456;SDS011;38369;52.840;7.082;2023-04-01T01:49:35;9.95;;;6.63;;
52456;SDS011;38369;52.840;7.082;2023-04-01T01:52:02;10.57;;;6.53;;
52456;SDS011;38369;52.840;7.082;2023-04-01T01:54:28;10.77;;;7.15;;
52456;SDS011;38369;52.840;7.082;2023-04-01T01:57:06;9.68;;;6.63;;
52456;SDS011;38369;52.840;7.082;2023-04-01T01:59:33;10.15;;;7.75;;
52456;SDS011;38369;52.840;7.082;2023-04-01T02:02:00;9.30;;;7.85;;
52456;SDS011;38369;52.840;7.082;2023-04-01T02:04:32;12.45;;;8.55;;
52456;SDS011;38369;52.840;7.082;2023-04-01T02:07:00;13.60;;;8.38;;
52456;SDS011;38369;52.840;7.082;2023-04-01T02:09:27;12.00;;;8.65;;
52456;SDS011;38369;52.840;7.082;2023-04-01T02:11:59;10.85;;;8.65;;
52456;SDS011;38369;52.840;7.082;2023-04-01T02:14:26;14.20;;;9.48;;
52456;SDS011;38369;52.840;7.082;2023-04-01T02:19:20;15.23;;;9.60;;
52456;SDS011;38369;52.840;7.082;2023-04-01T02:21:51;10.85;;;9.00;;
52456;SDS011;38369;52.840;7.082;2023-04-01T02:24:18;13.95;;;9.38;;
52456;SDS011;38369;52.840;7.082;2023-04-01T02:26:47;11.20;;;9.02;;
52456;SDS011;38369;52.840;7.082;2023-04-01T02:29:14;13.27;;;8.45;;
52456;SDS011;38369;52.840;7.082;2023-04-01T02:31:40;14.95;;;7.95;;
52456;SDS011;38369;52.840;7.082;2023-04-01T02:34:07;12.10;;;8.45;;
52456;SDS011;38369;52.840;7.082;2023-04-01T02:36:34;12.63;;;9.27;;
52456;SDS011;38369;52.840;7.082;2023-04-01T02:39:01;13.32;;;8.68;;
52456;SDS011;38369;52.840;7.082;2023-04-01T02:41:29;13.50;;;8.60;;
52456;SDS011;38369;52.840;7.082;2023-04-01T02:43:55;17.63;;;8.07;;
52456;SDS011;38369;52.840;7.082;2023-04-01T02:46:23;15.15;;;8.98;;
52456;SDS011;38369;52.840;7.082;2023-04-01T02:48:49;13.98;;;8.10;;
52456;SDS011;38369;52.840;7.082;2023-04-01T02:51:15;14.88;;;8.77;;
52456;SDS011;38369;52.840;7.082;2023-04-01T02:53:41;10.65;;;7.65;;
52456;SDS011;38369;52.840;7.082;2023-04-01T02:56:07;13.80;;;9.35;;
52456;SDS011;38369;52.840;7.082;2023-04-01T02:58:33;15.65;;;9.45;;
52456;SDS011;38369;52.840;7.082;2023-04-01T03:01:00;13.57;;;8.15;;
52456;SDS011;38369;52.840;7.082;2023-04-01T03:03:26;14.25;;;8.98;;
52456;SDS011;38369;52.840;7.082;2023-04-01T03:05:52;18.40;;;9.73;;
52456;SDS011;38369;52.840;7.082;2023-04-01T03:08:21;11.45;;;9.15;;
52456;SDS011;38369;52.840;7.082;2023-04-01T03:10:47;14.20;;;9.50;;
52456;SDS011;38369;52.840;7.082;2023-04-01T03:13:13;12.82;;;9.15;;
52456;SDS011;38369;52.840;7.082;2023-04-01T03:15:39;15.43;;;10.15;;
52456;SDS011;38369;52.840;7.082;2023-04-01T03:18:05;16.52;;;9.48;;
52456;SDS011;38369;52.840;7.082;2023-04-01T03:20:31;14.93;;;9.40;;
52456;SDS011;38369;52.840;7.082;2023-04-01T03:22:57;15.65;;;10.20;;
52456;SDS011;38369;52.840;7.082;2023-04-01T03:25:23;18.10;;;10.75;;
52456;SDS011;38369;52.840;7.082;2023-04-01T03:27:50;15.25;;;10.18;;
52456;SDS011;38369;52.840;7.082;2023-04-01T03:30:16;16.85;;;10.93;;
52456;SDS011;38369;52.840;7.082;2023-04-01T03:32:42;15.23;;;10.63;;
52456;SDS011;38369;52.840;7.082;2023-04-01T03:35:08;17.98;;;11.88;;
52456;SDS011;38369;52.840;7.082;2023-04-01T03:37:35;18.88;;;12.18;;
52456;SDS011;38369;52.840;7.082;2023-04-01T03:40:01;21.45;;;12.50;;
52456;SDS011;38369;52.840;7.082;2023-04-01T03:42:27;16.60;;;11.98;;
52456;SDS011;38369;52.840;7.082;2023-04-01T03:44:53;22.90;;;12.93;;
52456;SDS011;38369;52.840;7.082;2023-04-01T03:47:19;18.60;;;12.93;;
52456;SDS011;38369;52.840;7.082;2023-04-01T03:49:45;23.67;;;14.02;;
52456;SDS011;38369;52.840;7.082;2023-04-01T03:52:11;20.02;;;14.13;;
52456;SDS011;38369;52.840;7.082;2023-04-01T03:54:37;20.63;;;13.55;;
52456;SDS011;38369;52.840;7.082;2023-04-01T03:57:04;23.75;;;14.35;;
52456;SDS011;38369;52.840;7.082;2023-04-01T03:59:30;23.42;;;13.60;;
52456;SDS011;38369;52.840;7.082;2023-04-01T04:01:56;22.27;;;14.60;;
52456;SDS011;38369;52.840;7.082;2023-04-01T04:04:23;21.50;;;14.63;;
52456;SDS011;38369;52.840;7.082;2023-04-01T04:06:49;23.10;;;16.15;;
52456;SDS011;38369;52.840;7.082;2023-04-01T04:09:16;29.02;;;15.68;;
52456;SDS011;38369;52.840;7.082;2023-04-01T04:11:42;23.23;;;14.60;;
52456;SDS011;38369;52.840;7.082;2023-04-01T04:14:08;20.77;;;15.27;;
52456;SDS011;38369;52.840;7.082;2023-04-01T04:16:34;25.75;;;15.32;;
52456;SDS011;38369;52.840;7.082;2023-04-01T04:19:01;25.63;;;16.27;;
52456;SDS011;38369;52.840;7.082;2023-04-01T04:21:28;25.63;;;16.17;;
52456;SDS011;38369;52.840;7.082;2023-04-01T04:23:54;24.58;;;16.20;;
52456;SDS011;38369;52.840;7.082;2023-04-01T04:26:20;22.40;;;15.60;;
52456;SDS011;38369;52.840;7.082;2023-04-01T04:28:46;26.52;;;16.30;;
52456;SDS011;38369;52.840;7.082;2023-04-01T04:31:17;24.60;;;14.98;;
52456;SDS011;38369;52.840;7.082;2023-04-01T04:33:43;18.92;;;13.57;;
52456;SDS011;38369;52.840;7.082;2023-04-01T04:36:10;25.95;;;15.00;;
52456;SDS011;38369;52.840;7.082;2023-04-01T04:38:36;20.42;;;14.45;;
52456;SDS011;38369;52.840;7.082;2023-04-01T04:41:02;19.45;;;14.52;;
52456;SDS011;38369;52.840;7.082;2023-04-01T04:43:28;21.30;;;13.98;;
52456;SDS011;38369;52.840;7.082;2023-04-01T04:45:54;21.73;;;14.63;;
52456;SDS011;38369;52.840;7.082;2023-04-01T04:48:20;20.65;;;14.27;;
52456;SDS011;38369;52.840;7.082;2023-04-01T04:50:47;23.45;;;14.65;;
52456;SDS011;38369;52.840;7.082;2023-04-01T04:53:13;20.27;;;14.30;;
52456;SDS011;38369;52.840;7.082;2023-04-01T04:55:44;22.10;;;12.60;;
52456;SDS011;38369;52.840;7.082;2023-04-01T04:58:10;17.85;;;13.43;;
52456;SDS011;38369;52.840;7.082;2023-04-01T05:00:36;21.92;;;13.77;;
52456;SDS011;38369;52.840;7.082;2023-04-01T05:03:02;20.33;;;13.15;;
52456;SDS011;38369;52.840;7.082;2023-04-01T05:05:28;23.05;;;12.73;;
52456;SDS011;38369;52.840;7.082;2023-04-01T05:07:54;18.50;;;12.45;;
52456;SDS011;38369;52.840;7.082;2023-04-01T05:10:20;18.38;;;13.07;;
52456;SDS011;38369;52.840;7.082;2023-04-01T05:12:46;18.67;;;12.95;;
52456;SDS011;38369;52.840;7.082;2023-04-01T05:15:13;22.92;;;14.32;;
52456;SDS011;38369;52.840;7.082;2023-04-01T05:17:40;15.18;;;11.57;;
52456;SDS011;38369;52.840;7.082;2023-04-01T05:20:06;17.33;;;11.93;;
52456;SDS011;38369;52.840;7.082;2023-04-01T05:22:32;20.60;;;13.35;;
52456;SDS011;38369;52.840;7.082;2023-04-01T05:24:58;17.40;;;12.25;;
52456;SDS011;38369;52.840;7.082;2023-04-01T05:27:25;16.70;;;12.18;;
52456;SDS011;38369;52.840;7.082;2023-04-01T05:29:51;18.13;;;12.60;;
52456;SDS011;38369;52.840;7.082;2023-04-01T05:32:17;16.80;;;12.30;;
52456;SDS011;38369;52.840;7.082;2023-04-01T05:34:43;17.83;;;12.02;;
52456;SDS011;38369;52.840;7.082;2023-04-01T05:37:09;15.50;;;11.10;;
52456;SDS011;38369;52.840;7.082;2023-04-01T05:39:36;15.48;;;10.95;;
52456;SDS011;38369;52.840;7.082;2023-04-01T05:42:02;17.55;;;12.35;;
52456;SDS011;38369;52.840;7.082;2023-04-01T05:44:28;15.88;;;10.95;;
52456;SDS011;38369;52.840;7.082;2023-04-01T05:46:54;17.23;;;11.25;;
52456;SDS011;38369;52.840;7.082;2023-04-01T05:49:20;18.25;;;11.93;;
52456;SDS011;38369;52.840;7.082;2023-04-01T05:51:46;14.25;;;10.82;;
52456;SDS011;38369;52.840;7.082;2023-04-01T05:54:13;15.35;;;10.75;;
52456;SDS011;38369;52.840;7.082;2023-04-01T05:56:39;14.93;;;10.30;;
52456;SDS011;38369;52.840;7.082;2023-04-01T05:59:05;16.27;;;11.90;;
52456;SDS011;38369;52.840;7.082;2023-04-01T06:01:31;13.27;;;9.27;;
52456;SDS011;38369;52.840;7.082;2023-04-01T06:03:57;13.75;;;10.07;;
52456;SDS011;38369;52.840;7.082;2023-04-01T06:06:24;15.38;;;10.32;;
52456;SDS011;38369;52.840;7.082;2023-04-01T06:08:51;12.70;;;9.98;;
52456;SDS011;38369;52.840;7.082;2023-04-01T06:14:07;15.55;;;10.32;;
52456;SDS011;38369;52.840;7.082;2023-04-01T06:19:28;13.95;;;9.57;;
52456;SDS011;38369;52.840;7.082;2023-04-01T06:27:43;14.48;;;9.15;;
52456;SDS011;38369;52.840;7.082;2023-04-01T06:38:18;12.10;;;7.28;;
52456;SDS011;38369;52.840;7.082;2023-04-01T06:41:13;11.02;;;7.88;;
52456;SDS011;38369;52.840;7.082;2023-04-01T06:51:30;8.05;;;6.00;;
52456;SDS011;38369;52.840;7.082;2023-04-01T06:54:04;10.73;;;6.10;;
52456;SDS011;38369;52.840;7.082;2023-04-01T06:56:32;9.02;;;5.97;;
52456;SDS011;38369;52.840;7.082;2023-04-01T06:59:15;7.72;;;5.50;;
52456;SDS011;38369;52.840;7.082;2023-04-01T07:01:44;9.27;;;5.53;;
52456;SDS011;38369;52.840;7.082;2023-04-01T07:04:14;10.90;;;5.45;;
52456;SDS011;38369;52.840;7.082;2023-04-01T07:09:16;7.45;;;5.28;;
52456;SDS011;38369;52.840;7.082;2023-04-01T07:11:44;6.82;;;5.22;;
52456;SDS011;38369;52.840;7.082;2023-04-01T07:14:32;9.23;;;5.45;;
52456;SDS011;38369;52.840;7.082;2023-04-01T07:17:04;9.20;;;6.32;;
52456;SDS011;38369;52.840;7.082;2023-04-01T07:19:36;10.40;;;6.25;;
52456;SDS011;38369;52.840;7.082;2023-04-01T07:22:06;9.20;;;5.47;;
52456;SDS011;38369;52.840;7.082;2023-04-01T07:24:42;8.30;;;5.60;;
52456;SDS011;38369;52.840;7.082;2023-04-01T07:27:10;9.27;;;6.10;;
52456;SDS011;38369;52.840;7.082;2023-04-01T07:29:36;9.88;;;5.93;;
52456;SDS011;38369;52.840;7.082;2023-04-01T07:32:06;12.05;;;6.35;;
52456;SDS011;38369;52.840;7.082;2023-04-01T07:42:02;10.05;;;6.15;;
52456;SDS011;38369;52.840;7.082;2023-04-01T07:49:29;7.90;;;4.78;;
52456;SDS011;38369;52.840;7.082;2023-04-01T07:51:59;6.30;;;4.35;;
52456;SDS011;38369;52.840;7.082;2023-04-01T07:54:29;6.97;;;4.25;;
52456;SDS011;38369;52.840;7.082;2023-04-01T07:57:01;6.07;;;3.60;;
52456;SDS011;38369;52.840;7.082;2023-04-01T07:59:31;4.63;;;3.20;;
52456;SDS011;38369;52.840;7.082;2023-04-01T08:09:42;3.75;;;2.50;;
52456;SDS011;38369;52.840;7.082;2023-04-01T08:15:04;5.18;;;1.73;;
52456;SDS011;38369;52.840;7.082;2023-04-01T08:25:37;2.53;;;1.85;;
52456;SDS011;38369;52.840;7.082;2023-04-01T08:30:43;2.72;;;1.98;;
52456;SDS011;38369;52.840;7.082;2023-04-01T08:33:24;4.05;;;2.83;;
52456;SDS011;38369;52.840;7.082;2023-04-01T08:38:19;5.43;;;3.55;;
52456;SDS011;38369;52.840;7.082;2023-04-01T08:40:54;5.88;;;3.78;;
52456;SDS011;38369;52.840;7.082;2023-04-01T08:48:54;7.63;;;5.40;;
52456;SDS011;38369;52.840;7.082;2023-04-01T08:54:06;7.57;;;5.25;;
52456;SDS011;38369;52.840;7.082;2023-04-01T08:56:56;7.82;;;5.63;;
52456;SDS011;38369;52.840;7.082;2023-04-01T09:10:28;11.95;;;6.90;;
52456;SDS011;38369;52.840;7.082;2023-04-01T09:13:14;7.78;;;5.93;;
52456;SDS011;38369;52.840;7.082;2023-04-01T09:21:10;9.10;;;6.78;;
52456;SDS011;38369;52.840;7.082;2023-04-01T09:29:02;7.93;;;6.45;;
52456;SDS011;38369;52.840;7.082;2023-04-01T09:41:45;6.97;;;5.07;;
52456;SDS011;38369;52.840;7.082;2023-04-01T09:47:01;6.43;;;5.38;;
52456;SDS011;38369;52.840;7.082;2023-04-01T09:52:20;8.32;;;5.20;;
52456;SDS011;38369;52.840;7.082;2023-04-01T09:54:57;6.70;;;5.70;;
52456;SDS011;38369;52.840;7.082;2023-04-01T10:00:24;6.20;;;5.25;;
52456;SDS011;38369;52.840;7.082;2023-04-01T10:08:20;8.02;;;5.53;;
52456;SDS011;38369;52.840;7.082;2023-04-01T10:21:19;6.35;;;4.80;;
52456;SDS011;38369;52.840;7.082;2023-04-01T10:26:36;7.22;;;4.97;;
52456;SDS011;38369;52.840;7.082;2023-04-01T10:36:58;7.85;;;5.53;;
52456;SDS011;38369;52.840;7.082;2023-04-01T10:55:27;13.77;;;11.18;;
52456;SDS011;38369;52.840;7.082;2023-04-01T11:26:51;6.28;;;4.72;;
52456;SDS011;38369;52.840;7.082;2023-04-01T11:31:47;7.45;;;5.25;;
52456;SDS011;38369;52.840;7.082;2023-04-01T11:34:21;6.30;;;5.68;;
52456;SDS011;38369;52.840;7.082;2023-04-01T11:42:38;6.75;;;4.22;;
52456;SDS011;38369;52.840;7.082;2023-04-01T11:50:26;3.90;;;3.45;;
52456;SDS011;38369;52.840;7.082;2023-04-01T12:00:55;4.03;;;3.10;;
52456;SDS011;38369;52.840;7.082;2023-04-01T12:06:14;3.85;;;2.90;;
52456;SDS011;38369;52.840;7.082;2023-04-01T12:11:29;4.28;;;3.17;;
52456;SDS011;38369;52.840;7.082;2023-04-01T12:14:08;3.80;;;3.17;;
52456;SDS011;38369;52.840;7.082;2023-04-01T12:34:54;4.53;;;3.47;;
52456;SDS011;38369;52.840;7.082;2023-04-01T12:37:29;3.38;;;2.92;;
52456;SDS011;38369;52.840;7.082;2023-04-01T12:42:47;3.58;;;3.03;;
52456;SDS011;38369;52.840;7.082;2023-04-01T12:55:42;4.75;;;4.20;;
52456;SDS011;38369;52.840;7.082;2023-04-01T12:58:25;6.10;;;4.63;;
52456;SDS011;38369;52.840;7.082;2023-04-01T13:01:19;4.80;;;4.03;;
52456;SDS011;38369;52.840;7.082;2023-04-01T13:12:05;4.75;;;4.22;;
52456;SDS011;38369;52.840;7.082;2023-04-01T13:27:32;4.05;;;3.53;;
52456;SDS011;38369;52.840;7.082;2023-04-01T13:30:22;4.20;;;3.50;;
52456;SDS011;38369;52.840;7.082;2023-04-01T13:35:26;4.55;;;3.70;;
52456;SDS011;38369;52.840;7.082;2023-04-01T13:37:58;4.63;;;3.72;;
52456;SDS011;38369;52.840;7.082;2023-04-01T13:43:15;4.60;;;4.00;;
52456;SDS011;38369;52.840;7.082;2023-04-01T13:56:42;4.45;;;3.95;;
52456;SDS011;38369;52.840;7.082;2023-04-01T13:59:24;4.45;;;3.95;;
52456;SDS011;38369;52.840;7.082;2023-04-01T14:12:06;4.95;;;4.43;;
52456;SDS011;38369;52.840;7.082;2023-04-01T14:35:38;6.43;;;5.82;;
52456;SDS011;38369;52.840;7.082;2023-04-01T14:41:24;6.82;;;5.45;;
52456;SDS011;38369;52.840;7.082;2023-04-01T14:48:56;5.57;;;4.93;;
52456;SDS011;38369;52.840;7.082;2023-04-01T14:51:33;5.22;;;4.50;;
52456;SDS011;38369;52.840;7.082;2023-04-01T15:01:59;4.22;;;3.83;;
52456;SDS011;38369;52.840;7.082;2023-04-01T15:07:15;4.50;;;4.10;;
52456;SDS011;38369;52.840;7.082;2023-04-01T15:17:55;4.60;;;4.18;;
52456;SDS011;38369;52.840;7.082;2023-04-01T15:41:03;3.00;;;2.70;;
52456;SDS011;38369;52.840;7.082;2023-04-01T15:49:00;3.17;;;2.88;;
52456;SDS011;38369;52.840;7.082;2023-04-01T15:56:42;3.83;;;3.00;;
52456;SDS011;38369;52.840;7.082;2023-04-01T15:59:28;3.33;;;3.03;;
52456;SDS011;38369;52.840;7.082;2023-04-01T16:01:59;3.03;;;2.80;;
52456;SDS011;38369;52.840;7.082;2023-04-01T16:09:39;3.05;;;2.75;;
52456;SDS011;38369;52.840;7.082;2023-04-01T16:32:49;3.92;;;3.40;;
52456;SDS011;38369;52.840;7.082;2023-04-01T16:35:35;5.72;;;4.25;;
52456;SDS011;38369;52.840;7.082;2023-04-01T16:40:50;4.30;;;3.88;;
52456;SDS011;38369;52.840;7.082;2023-04-01T16:49:02;4.80;;;4.30;;
52456;SDS011;38369;52.840;7.082;2023-04-01T16:51:11;4.55;;;4.15;;
52456;SDS011;38369;52.840;7.082;2023-04-01T16:53:43;4.97;;;4.47;;
52456;SDS011;38369;52.840;7.082;2023-04-01T16:58:36;4.40;;;4.00;;
52456;SDS011;38369;52.840;7.082;2023-04-01T17:01:05;5.15;;;4.65;;
52456;SDS011;38369;52.840;7.082;2023-04-01T17:03:43;4.63;;;4.22;;
52456;SDS011;38369;52.840;7.082;2023-04-01T17:11:19;6.20;;;5.60;;
52456;SDS011;38369;52.840;7.082;2023-04-01T17:24:31;6.55;;;5.85;;
52456;SDS011;38369;52.840;7.082;2023-04-01T17:35:26;6.05;;;5.45;;
52456;SDS011;38369;52.840;7.082;2023-04-01T17:43:08;6.35;;;5.70;;
52456;SDS011;38369;52.840;7.082;2023-04-01T17:45:54;6.45;;;5.85;;
52456;SDS011;38369;52.840;7.082;2023-04-01T17:48:24;7.93;;;6.68;;
52456;SDS011;38369;52.840;7.082;2023-04-01T17:53:35;8.40;;;7.43;;
52456;SDS011;38369;52.840;7.082;2023-04-01T17:56:24;8.40;;;7.15;;
52456;SDS011;38369;52.840;7.082;2023-04-01T18:04:18;11.30;;;6.95;;
52456;SDS011;38369;52.840;7.082;2023-04-01T18:10:04;7.72;;;6.07;;
52456;SDS011;38369;52.840;7.082;2023-04-01T18:17:57;7.63;;;6.88;;
52456;SDS011;38369;52.840;7.082;2023-04-01T18:22:58;9.68;;;8.15;;
52456;SDS011;38369;52.840;7.082;2023-04-01T18:25:41;9.00;;;8.10;;
52456;SDS011;38369;52.840;7.082;2023-04-01T18:28:26;9.70;;;7.85;;
52456;SDS011;38369;52.840;7.082;2023-04-01T18:31:02;9.48;;;8.57;;
52456;SDS011;38369;52.840;7.082;2023-04-01T18:33:45;8.85;;;7.95;;
52456;SDS011;38369;52.840;7.082;2023-04-01T18:36:33;12.10;;;8.05;;
52456;SDS011;38369;52.840;7.082;2023-04-01T18:39:03;9.80;;;8.35;;
52456;SDS011;38369;52.840;7.082;2023-04-01T18:41:35;9.80;;;8.13;;
52456;SDS011;38369;52.840;7.082;2023-04-01T18:44:11;9.88;;;8.82;;
52456;SDS011;38369;52.840;7.082;2023-04-01T18:46:49;8.98;;;7.93;;
52456;SDS011;38369;52.840;7.082;2023-04-01T18:49:25;11.77;;;8.63;;
52456;SDS011;38369;52.840;7.082;2023-04-01T18:51:56;10.07;;;9.07;;
52456;SDS011;38369;52.840;7.082;2023-04-01T18:56:58;10.60;;;8.52;;
52456;SDS011;38369;52.840;7.082;2023-04-01T18:59:32;12.50;;;9.40;;
52456;SDS011;38369;52.840;7.082;2023-04-01T19:02:02;9.40;;;8.48;;
52456;SDS011;38369;52.840;7.082;2023-04-01T19:04:52;10.27;;;9.20;;
52456;SDS011;38369;52.840;7.082;2023-04-01T19:10:00;9.70;;;8.00;;
52456;SDS011;38369;52.840;7.082;2023-04-01T19:15:27;10.95;;;9.73;;
52456;SDS011;38369;52.840;7.082;2023-04-01T19:28:22;10.90;;;8.05;;
52456;SDS011;38369;52.840;7.082;2023-04-01T19:30:56;12.32;;;9.18;;
52456;SDS011;38369;52.840;7.082;2023-04-01T19:33:29;10.23;;;8.45;;
52456;SDS011;38369;52.840;7.082;2023-04-01T19:56:39;10.52;;;7.72;;
52456;SDS011;38369;52.840;7.082;2023-04-01T20:01:34;10.60;;;7.88;;
52456;SDS011;38369;52.840;7.082;2023-04-01T20:04:02;11.35;;;7.40;;
52456;SDS011;38369;52.840;7.082;2023-04-01T20:12:20;9.23;;;7.07;;
52456;SDS011;38369;52.840;7.082;2023-04-01T20:15:02;9.30;;;7.30;;
52456;SDS011;38369;52.840;7.082;2023-04-01T20:17:33;9.50;;;6.82;;
52456;SDS011;38369;52.840;7.082;2023-04-01T20:25:12;8.52;;;6.95;;
52456;SDS011;38369;52.840;7.082;2023-04-01T20:27:41;11.80;;;8.38;;
52456;SDS011;38369;52.840;7.082;2023-04-01T20:35:41;13.18;;;9.15;;
52456;SDS011;38369;52.840;7.082;2023-04-01T20:55:56;11.27;;;9.30;;
52456;SDS011;38369;52.840;7.082;2023-04-01T21:11:13;16.35;;;9.73;;
52456;SDS011;38369;52.840;7.082;2023-04-01T21:18:52;14.60;;;8.95;;
52456;SDS011;38369;52.840;7.082;2023-04-01T21:21:55;13.05;;;9.15;;
52456;SDS011;38369;52.840;7.082;2023-04-01T21:32:25;11.68;;;8.38;;
52456;SDS011;38369;52.840;7.082;2023-04-01T21:34:57;16.83;;;9.80;;
52456;SDS011;38369;52.840;7.082;2023-04-01T21:37:32;14.73;;;9.50;;
52456;SDS011;38369;52.840;7.082;2023-04-01T21:45:07;15.52;;;9.38;;
52456;SDS011;38369;52.840;7.082;2023-04-01T22:16:23;9.73;;;7.77;;
52456;SDS011;38369;52.840;7.082;2023-04-01T22:18:56;12.85;;;8.50;;
52456;SDS011;38369;52.840;7.082;2023-04-01T22:22:08;15.57;;;9.50;;
52456;SDS011;38369;52.840;7.082;2023-04-01T22:27:06;11.27;;;8.38;;
52456;SDS011;38369;52.840;7.082;2023-04-01T22:29:38;13.20;;;9.13;;
52456;SDS011;38369;52.840;7.082;2023-04-01T22:32:21;15.55;;;8.82;;
52456;SDS011;38369;52.840;7.082;2023-04-01T22:34:49;10.60;;;9.13;;
52456;SDS011;38369;52.840;7.082;2023-04-01T22:48:03;18.48;;;7.60;;
52456;SDS011;38369;52.840;7.082;2023-04-01T22:50:24;12.52;;;6.88;;
52456;SDS011;38369;52.840;7.082;2023-04-01T22:52:54;12.00;;;7.93;;
52456;SDS011;38369;52.840;7.082;2023-04-01T22:55:25;8.85;;;7.93;;
52456;SDS011;38369;52.840;7.082;2023-04-01T22:57:55;12.90;;;8.77;;
52456;SDS011;38369;52.840;7.082;2023-04-01T23:00:25;10.27;;;7.75;;
52456;SDS011;38369;52.840;7.082;2023-04-01T23:05:39;11.63;;;7.57;;
52456;SDS011;38369;52.840;7.082;2023-04-01T23:08:29;9.63;;;8.10;;
52456;SDS011;38369;52.840;7.082;2023-04-01T23:11:05;13.70;;;8.43;;
52456;SDS011;38369;52.840;7.082;2023-04-01T23:13:36;11.07;;;7.88;;
52456;SDS011;38369;52.840;7.082;2023-04-01T23:16:04;13.43;;;7.85;;
52456;SDS011;38369;52.840;7.082;2023-04-01T23:18:45;15.27;;;8.98;;
52456;SDS011;38369;52.840;7.082;2023-04-01T23:26:47;12.98;;;7.97;;
52456;SDS011;38369;52.840;7.082;2023-04-01T23:29:16;11.75;;;8.27;;
52456;SDS011;38369;52.840;7.082;2023-04-01T23:31:44;16.40;;;8.80;;
52456;SDS011;38369;52.840;7.082;2023-04-01T23:36:41;12.70;;;8.25;;
52456;SDS011;38369;52.840;7.082;2023-04-01T23:39:17;10.18;;;8.25;;
52456;SDS011;38369;52.840;7.082;2023-04-01T23:41:47;16.25;;;8.90;;
52456;SDS011;38369;52.840;7.082;2023-04-01T23:44:13;13.13;;;8.27;;
52456;SDS011;38369;52.840;7.082;2023-04-01T23:46:40;12.45;;;7.63;;
52456;SDS011;38369;52.840;7.082;2023-04-01T23:49:15;14.23;;;7.43;;
52456;SDS011;38369;52.840;7.082;2023-04-01T23:51:54;11.63;;;8.00;;
52456;SDS011;38369;52.840;7.082;2023-04-01T23:56:51;12.88;;;7.50;;
52456;SDS011;38369;52.840;7.082;2023-04-01T23:59:19;9.50;;;7.53;;
